createdAt,value
2022-08-23T00:02:27.014Z,18.31
2022-08-23T00:05:07.550Z,18.28
2022-08-23T00:07:43.715Z,18.18
2022-08-23T00:10:14.729Z,18.09
2022-08-23T00:12:43.590Z,18.01
2022-08-23T00:15:15.072Z,17.94
2022-08-23T00:17:42.288Z,17.88
2022-08-23T00:20:14.251Z,17.75
2022-08-23T00:22:41.116Z,17.72
2022-08-23T00:25:13.150Z,17.64
2022-08-23T00:27:40.785Z,17.65
2022-08-23T00:30:10.787Z,17.66
2022-08-23T00:32:39.621Z,17.60
2022-08-23T00:35:09.391Z,17.50
2022-08-23T00:37:36.108Z,17.43
2022-08-23T00:40:06.473Z,17.43
2022-08-23T00:43:03.247Z,17.38
2022-08-23T00:46:13.324Z,17.24
2022-08-23T00:48:40.971Z,17.16
2022-08-23T00:51:21.345Z,17.21
2022-08-23T00:53:55.431Z,17.20
2022-08-23T00:56:25.398Z,17.18
2022-08-23T00:58:54.384Z,17.17
2022-08-23T01:01:23.995Z,17.18
2022-08-23T01:03:59.214Z,17.16
2022-08-23T01:06:49.570Z,17.14
2022-08-23T01:09:21.128Z,17.07
2022-08-23T01:11:59.941Z,16.99
2022-08-23T01:14:48.980Z,16.92
2022-08-23T01:17:25.230Z,16.82
2022-08-23T01:20:04.679Z,16.78
2022-08-23T01:23:08.544Z,16.70
2022-08-23T01:25:37.180Z,16.67
2022-08-23T01:28:04.652Z,16.64
2022-08-23T01:30:33.481Z,16.61
2022-08-23T01:33:06.559Z,16.51
2022-08-23T01:35:39.863Z,16.54
2022-08-23T01:38:08.542Z,16.54
2022-08-23T01:40:37.383Z,16.52
2022-08-23T01:43:07.257Z,16.46
2022-08-23T01:45:34.101Z,16.48
2022-08-23T01:48:02.616Z,16.55
2022-08-23T01:50:30.116Z,16.53
2022-08-23T01:52:57.701Z,16.48
2022-08-23T01:55:25.727Z,16.42
2022-08-23T01:57:56.957Z,16.33
2022-08-23T02:00:30.398Z,16.27
2022-08-23T02:02:59.264Z,16.27
2022-08-23T02:05:27.138Z,16.21
2022-08-23T02:07:54.018Z,16.15
2022-08-23T02:10:21.423Z,16.17
2022-08-23T02:12:47.983Z,16.14
2022-08-23T02:15:16.223Z,16.07
2022-08-23T02:17:44.304Z,16.00
2022-08-23T02:20:12.107Z,15.87
2022-08-23T02:22:39.518Z,15.81
2022-08-23T02:25:07.447Z,15.80
2022-08-23T02:27:34.046Z,15.75
2022-08-23T02:30:00.631Z,15.71
2022-08-23T02:32:28.728Z,15.74
2022-08-23T02:35:04.993Z,15.72
2022-08-23T02:37:33.354Z,15.61
2022-08-23T02:39:59.931Z,15.51
2022-08-23T02:42:26.470Z,15.39
2022-08-23T02:44:53.060Z,15.39
2022-08-23T02:47:19.647Z,15.36
2022-08-23T02:49:46.509Z,15.27
2022-08-23T02:52:13.072Z,15.21
2022-08-23T02:54:39.681Z,15.14
2022-08-23T02:57:06.519Z,15.05
2022-08-23T02:59:33.666Z,15.03
2022-08-23T03:02:00.278Z,15.10
2022-08-23T03:04:27.439Z,15.10
2022-08-23T03:06:54.093Z,15.05
2022-08-23T03:09:20.726Z,15.04
2022-08-23T03:11:49.896Z,15.07
2022-08-23T03:14:16.862Z,15.05
2022-08-23T03:16:44.786Z,15.03
2022-08-23T03:19:11.377Z,15.09
2022-08-23T03:21:38.543Z,15.18
2022-08-23T03:24:10.012Z,15.16
2022-08-23T03:26:37.495Z,15.10
2022-08-23T03:29:04.466Z,15.02
2022-08-23T03:31:31.289Z,14.89
2022-08-23T03:33:58.124Z,14.92
2022-08-23T03:36:28.077Z,14.90
2022-08-23T03:38:55.602Z,14.90
2022-08-23T03:41:22.279Z,14.88
2022-08-23T03:43:48.903Z,14.89
2022-08-23T03:46:22.881Z,14.87
2022-08-23T03:48:53.196Z,14.77
2022-08-23T03:51:22.255Z,14.69
2022-08-23T03:53:49.791Z,14.60
2022-08-23T03:56:37.713Z,14.58
2022-08-23T03:59:09.075Z,14.52
2022-08-23T04:01:36.512Z,14.52
2022-08-23T04:04:03.766Z,14.48
2022-08-23T04:06:32.861Z,14.45
2022-08-23T04:09:00.555Z,14.45
2022-08-23T04:11:27.637Z,14.44
2022-08-23T04:13:54.289Z,14.47
2022-08-23T04:16:21.268Z,14.40
2022-08-23T04:18:49.531Z,14.31
2022-08-23T04:21:22.377Z,14.24
2022-08-23T04:23:49.506Z,14.25
2022-08-23T04:26:16.091Z,14.19
2022-08-23T04:28:43.295Z,14.13
2022-08-23T04:31:09.881Z,14.15
2022-08-23T04:33:40.268Z,14.20
2022-08-23T04:36:07.930Z,14.19
2022-08-23T04:38:34.448Z,14.15
2022-08-23T04:41:19.569Z,14.06
2022-08-23T04:43:46.176Z,14.01
2022-08-23T04:46:16.983Z,14.02
2022-08-23T04:48:46.287Z,14.03
2022-08-23T04:51:13.191Z,14.03
2022-08-23T04:53:40.812Z,14.07
2022-08-23T04:56:08.803Z,14.17
2022-08-23T04:58:37.139Z,14.14
2022-08-23T05:01:08.261Z,14.16
2022-08-23T05:03:35.440Z,14.20
2022-08-23T05:06:03.804Z,14.29
2022-08-23T05:08:31.406Z,14.35
2022-08-23T05:11:04.339Z,14.30
2022-08-23T05:13:34.793Z,14.31
2022-08-23T05:16:02.587Z,14.35
2022-08-23T05:18:29.300Z,14.40
2022-08-23T05:20:55.896Z,14.42
2022-08-23T05:23:23.590Z,14.42
2022-08-23T05:25:58.702Z,14.43
2022-08-23T05:28:33.251Z,14.37
2022-08-23T05:31:11.526Z,14.39
2022-08-23T05:33:40.486Z,14.44
2022-08-23T05:36:09.379Z,14.45
2022-08-23T05:38:36.551Z,14.45
2022-08-23T05:41:05.292Z,14.40
2022-08-23T05:43:34.478Z,14.41
2022-08-23T05:46:13.189Z,14.41
2022-08-23T05:48:46.780Z,14.42
2022-08-23T05:51:33.355Z,14.41
2022-08-23T05:54:05.644Z,14.41
2022-08-23T05:56:37.328Z,14.44
2022-08-23T05:59:12.358Z,14.48
2022-08-23T06:01:41.171Z,14.56
2022-08-23T06:04:12.395Z,14.66
2022-08-23T06:06:41.536Z,14.76
2022-08-23T06:09:11.603Z,14.80
2022-08-23T06:11:38.247Z,14.87
2022-08-23T06:14:09.250Z,14.93
2022-08-23T06:16:43.603Z,14.95
2022-08-23T06:19:10.934Z,15.06
2022-08-23T06:21:39.867Z,15.21
2022-08-23T06:24:07.197Z,15.35
2022-08-23T06:26:41.364Z,15.45
2022-08-23T06:29:15.636Z,15.59
2022-08-23T06:31:49.628Z,15.66
2022-08-23T06:34:32.210Z,15.70
2022-08-23T06:37:02.744Z,15.77
2022-08-23T06:39:35.449Z,15.89
2022-08-23T06:42:34.804Z,16.03
2022-08-23T06:44:58.730Z,16.18
2022-08-23T06:47:25.468Z,16.30
2022-08-23T06:49:58.336Z,16.43
2022-08-23T06:52:27.445Z,16.63
2022-08-23T06:54:54.648Z,16.78
2022-08-23T06:57:21.421Z,16.90
2022-08-23T06:59:49.906Z,16.98
2022-08-23T07:02:16.758Z,17.06
2022-08-23T07:04:43.433Z,17.19
2022-08-23T07:07:11.954Z,17.31
2022-08-23T07:09:40.901Z,17.42
2022-08-23T07:12:08.052Z,17.54
2022-08-23T07:14:34.976Z,17.62
2022-08-23T07:17:03.575Z,17.72
2022-08-23T07:19:34.789Z,17.77
2022-08-23T07:22:04.103Z,17.89
2022-08-23T07:24:33.649Z,18.00
2022-08-23T07:27:06.862Z,18.10
2022-08-23T07:29:36.198Z,18.25
2022-08-23T07:32:03.939Z,18.35
2022-08-23T07:34:30.543Z,18.45
2022-08-23T07:36:57.104Z,18.48
2022-08-23T07:39:26.325Z,18.55
2022-08-23T07:41:52.945Z,18.61
2022-08-23T07:44:23.506Z,18.71
2022-08-23T07:46:55.115Z,18.81
2022-08-23T07:49:22.946Z,18.89
2022-08-23T07:51:58.665Z,18.97
2022-08-23T07:54:25.705Z,19.09
2022-08-23T07:56:52.294Z,19.19
2022-08-23T07:59:18.845Z,19.30
2022-08-23T08:01:45.566Z,19.39
2022-08-23T08:04:12.500Z,19.47
2022-08-23T08:06:46.092Z,19.50
2022-08-23T08:09:15.176Z,19.59
2022-08-23T08:11:45.321Z,19.67
2022-08-23T08:14:12.757Z,19.78
2022-08-23T08:16:44.814Z,19.86
2022-08-23T08:19:15.721Z,19.91
2022-08-23T08:21:48.012Z,19.99
2022-08-23T08:24:19.258Z,20.03
2022-08-23T08:26:46.856Z,20.14
2022-08-23T08:29:14.100Z,20.26
2022-08-23T08:31:43.908Z,20.34
2022-08-23T08:34:11.927Z,20.39
2022-08-23T08:36:47.967Z,20.47
2022-08-23T08:39:21.812Z,20.62
2022-08-23T08:42:08.992Z,20.67
2022-08-23T08:44:55.512Z,20.72
2022-08-23T08:47:53.332Z,20.71
2022-08-23T08:50:39.486Z,20.81
2022-08-23T08:53:19.102Z,20.88
2022-08-23T08:55:51.763Z,20.96
2022-08-23T08:58:45.484Z,21.03
2022-08-23T09:01:12.313Z,21.15
2022-08-23T09:03:40.359Z,21.32
2022-08-23T09:06:41.478Z,21.42
2022-08-23T09:09:47.166Z,21.48
2022-08-23T09:12:44.943Z,21.62
2022-08-23T09:15:48.960Z,21.75
2022-08-23T09:18:17.275Z,21.84
2022-08-23T09:20:47.817Z,21.91
2022-08-23T09:23:24.072Z,22.02
2022-08-23T09:26:03.751Z,22.15
2022-08-23T09:28:36.437Z,22.28
2022-08-23T09:31:04.371Z,22.35
2022-08-23T09:33:49.199Z,22.43
2022-08-23T09:36:23.412Z,22.54
2022-08-23T09:38:59.779Z,22.71
2022-08-23T09:41:37.125Z,22.71
2022-08-23T09:44:13.341Z,22.81
2022-08-23T09:46:42.816Z,22.93
2022-08-23T09:49:29.803Z,23.01
2022-08-23T09:52:02.078Z,23.10
2022-08-23T09:54:37.148Z,23.15
2022-08-23T09:57:10.201Z,23.24
2022-08-23T09:59:51.609Z,23.43
2022-08-23T10:02:30.358Z,23.60
2022-08-23T10:05:17.467Z,23.75
2022-08-23T10:07:54.997Z,23.83
2022-08-23T10:10:51.118Z,23.87
2022-08-23T10:13:18.114Z,24.03
2022-08-23T10:16:10.281Z,24.13
2022-08-23T10:19:07.859Z,24.16
2022-08-23T10:22:01.001Z,24.25
2022-08-23T10:24:54.662Z,24.29
2022-08-23T10:28:30.884Z,24.39
2022-08-23T10:31:45.394Z,24.44
2022-08-23T10:34:50.415Z,24.45
2022-08-23T10:37:57.256Z,24.54
2022-08-23T10:40:58.955Z,24.64
2022-08-23T10:43:45.580Z,24.78
2022-08-23T10:46:12.985Z,24.94
2022-08-23T10:48:54.414Z,25.03
2022-08-23T10:51:43.291Z,25.08
2022-08-23T10:54:34.409Z,25.13
2022-08-23T10:57:05.302Z,25.26
2022-08-23T10:59:36.847Z,25.41
2022-08-23T11:02:31.491Z,25.49
2022-08-23T11:05:28.002Z,25.52
2022-08-23T11:08:30.326Z,25.56
2022-08-23T11:10:57.143Z,25.75
2022-08-23T11:13:34.958Z,25.90
2022-08-23T11:16:13.907Z,26.03
2022-08-23T11:18:48.695Z,26.24
2022-08-23T11:21:17.930Z,26.34
2022-08-23T11:23:59.673Z,26.39
2022-08-23T11:26:26.063Z,26.36
2022-08-23T11:29:21.243Z,26.21
2022-08-23T11:32:29.929Z,26.23
2022-08-23T11:34:56.819Z,26.41
2022-08-23T11:37:47.257Z,26.53
2022-08-23T11:40:18.136Z,26.55
2022-08-23T11:42:52.711Z,26.54
2022-08-23T11:45:27.548Z,26.61
2022-08-23T11:48:24.739Z,26.60
2022-08-23T11:50:57.516Z,26.74
2022-08-23T11:53:59.184Z,26.72
2022-08-23T11:56:26.658Z,26.83
2022-08-23T11:59:14.038Z,26.98
2022-08-23T12:01:43.710Z,27.11
2022-08-23T12:04:26.450Z,27.22
2022-08-23T12:07:01.538Z,27.27
2022-08-23T12:09:27.990Z,27.35
2022-08-23T12:11:57.436Z,27.36
2022-08-23T12:14:45.307Z,27.30
2022-08-23T12:17:28.708Z,27.40
2022-08-23T12:20:16.429Z,27.56
2022-08-23T12:23:11.451Z,27.60
2022-08-23T12:25:38.137Z,27.74
2022-08-23T12:28:31.968Z,27.85
2022-08-23T12:31:21.853Z,27.89
2022-08-23T12:34:07.514Z,27.97
2022-08-23T12:36:51.966Z,27.97
2022-08-23T12:39:39.562Z,27.97
2022-08-23T12:42:25.831Z,28.05
2022-08-23T12:45:17.207Z,27.94
2022-08-23T12:47:56.825Z,28.21
2022-08-23T12:50:32.911Z,28.18
2022-08-23T12:53:11.432Z,28.15
2022-08-23T12:55:49.889Z,28.09
2022-08-23T12:58:31.522Z,27.99
2022-08-23T13:01:16.619Z,27.91
2022-08-23T13:03:50.555Z,27.99
2022-08-23T13:06:31.413Z,28.19
2022-08-23T13:09:29.436Z,28.43
2022-08-23T13:11:58.948Z,28.62
2022-08-23T13:14:47.711Z,28.65
2022-08-23T13:17:26.502Z,28.73
2022-08-23T13:20:19.886Z,28.82
2022-08-23T13:23:07.213Z,28.95
2022-08-23T13:25:38.931Z,29.01
2022-08-23T13:28:24.108Z,29.08
2022-08-23T13:31:05.691Z,29.08
2022-08-23T13:33:32.520Z,29.21
2022-08-23T13:36:21.724Z,29.20
2022-08-23T13:38:49.403Z,29.19
2022-08-23T13:41:39.067Z,29.05
2022-08-23T13:44:08.933Z,28.97
2022-08-23T13:46:46.031Z,28.88
2022-08-23T13:49:21.819Z,28.89
2022-08-23T13:52:37.574Z,28.86
2022-08-23T13:54:51.041Z,28.82
2022-08-23T13:57:22.188Z,28.82
2022-08-23T13:59:58.851Z,28.80
2022-08-23T14:02:26.039Z,28.80
2022-08-23T14:04:52.765Z,28.68
2022-08-23T14:07:19.815Z,28.57
2022-08-23T14:09:46.539Z,28.56
2022-08-23T14:12:21.287Z,28.56
2022-08-23T14:14:49.150Z,28.62
2022-08-23T14:17:20.573Z,28.65
2022-08-23T14:20:33.014Z,28.70
2022-08-23T14:22:36.142Z,28.64
2022-08-23T14:25:04.332Z,28.58
2022-08-23T14:27:31.286Z,28.51
2022-08-23T14:29:58.446Z,28.44
2022-08-23T14:32:25.563Z,28.35
2022-08-23T14:34:52.244Z,28.28
2022-08-23T14:38:02.944Z,28.24
2022-08-23T14:40:06.498Z,28.18
2022-08-23T14:42:33.129Z,28.23
2022-08-23T14:45:00.139Z,28.33
2022-08-23T14:47:27.161Z,28.52
2022-08-23T14:49:54.295Z,28.52
2022-08-23T14:52:22.316Z,28.52
2022-08-23T14:54:49.754Z,28.50
2022-08-23T14:57:16.861Z,28.53
2022-08-23T14:59:43.419Z,28.43
2022-08-23T15:02:16.186Z,28.50
2022-08-23T15:04:42.689Z,28.51
2022-08-23T15:07:18.652Z,28.60
2022-08-23T15:09:49.078Z,28.64
2022-08-23T15:15:14.397Z,28.83
2022-08-23T15:17:58.553Z,28.81
2022-08-23T15:20:31.094Z,28.87
2022-08-23T15:22:58.599Z,28.92
2022-08-23T15:25:29.030Z,28.98
2022-08-23T15:27:55.975Z,28.93
2022-08-23T15:30:24.512Z,28.91
2022-08-23T15:32:52.527Z,28.90
2022-08-23T15:35:25.743Z,28.90
2022-08-23T15:37:54.637Z,28.87
2022-08-23T15:40:21.812Z,28.90
2022-08-23T15:42:48.719Z,28.87
2022-08-23T15:45:15.374Z,28.81
2022-08-23T15:47:52.586Z,28.59
2022-08-23T15:50:23.633Z,28.53
2022-08-23T15:52:50.738Z,28.46
2022-08-23T15:55:18.086Z,28.36
2022-08-23T15:57:49.622Z,28.26
2022-08-23T16:00:20.614Z,28.18
2022-08-23T16:03:18.212Z,28.11
2022-08-23T16:05:37.043Z,28.04
2022-08-23T16:08:05.578Z,28.03
2022-08-23T16:10:32.288Z,28.02
2022-08-23T16:12:59.118Z,28.02
2022-08-23T16:15:25.671Z,28.03
2022-08-23T16:17:52.651Z,28.04
2022-08-23T16:20:20.169Z,28.06
2022-08-23T16:22:46.660Z,28.09
2022-08-23T16:25:13.165Z,28.11
2022-08-23T16:27:39.707Z,28.12
2022-08-23T16:30:08.086Z,28.15
2022-08-23T16:32:39.138Z,28.14
2022-08-23T16:35:07.259Z,28.11
2022-08-23T16:37:33.813Z,28.09
2022-08-23T16:40:00.399Z,28.12
2022-08-23T16:42:26.980Z,28.12
2022-08-23T16:44:53.563Z,28.10
2022-08-23T16:47:20.263Z,28.11
2022-08-23T16:49:47.150Z,28.12
2022-08-23T16:52:14.035Z,28.09
2022-08-23T16:54:40.870Z,28.10
2022-08-23T16:57:07.405Z,28.03
2022-08-23T16:59:40.196Z,27.98
2022-08-23T17:02:10.901Z,27.86
2022-08-23T17:04:38.035Z,27.76
2022-08-23T17:07:04.878Z,27.69
2022-08-23T17:09:31.444Z,27.58
2022-08-23T17:11:58.467Z,27.50
2022-08-23T17:14:26.006Z,27.44
2022-08-23T17:16:53.158Z,27.44
2022-08-23T17:19:19.821Z,27.41
2022-08-23T17:21:46.468Z,27.36
2022-08-23T17:24:13.078Z,27.34
2022-08-23T17:26:39.691Z,27.26
2022-08-23T17:29:07.345Z,27.18
2022-08-23T17:31:33.973Z,27.10
2022-08-23T17:34:03.689Z,27.02
2022-08-23T17:36:47.571Z,26.91
2022-08-23T17:39:18.934Z,26.81
2022-08-23T17:41:45.871Z,26.69
2022-08-23T17:44:13.289Z,26.59
2022-08-23T17:46:45.031Z,26.49
2022-08-23T17:49:13.436Z,26.37
2022-08-23T17:51:41.272Z,26.23
2022-08-23T17:54:10.023Z,26.12
2022-08-23T17:56:37.864Z,26.03
2022-08-23T17:59:07.304Z,25.89
2022-08-23T18:01:34.293Z,25.76
2022-08-23T18:04:00.916Z,25.60
2022-08-23T18:06:27.954Z,25.47
2022-08-23T18:08:55.544Z,25.32
2022-08-23T18:11:22.804Z,25.16
2022-08-23T18:13:49.535Z,24.99
2022-08-23T18:16:16.138Z,24.90
2022-08-23T18:18:43.281Z,24.83
2022-08-23T18:21:12.605Z,24.76
2022-08-23T18:23:41.391Z,24.65
2022-08-23T18:26:30.253Z,24.54
2022-08-23T18:28:57.891Z,24.45
2022-08-23T18:31:27.283Z,24.31
2022-08-23T18:34:00.218Z,24.16
2022-08-23T18:36:29.687Z,24.09
2022-08-23T18:38:57.139Z,24.00
2022-08-23T18:41:23.823Z,23.93
2022-08-23T18:43:51.238Z,23.92
2022-08-23T18:46:18.829Z,23.84
2022-08-23T18:48:53.214Z,23.69
2022-08-23T18:51:22.084Z,23.49
2022-08-23T18:53:48.739Z,23.34
2022-08-23T18:56:15.321Z,23.22
2022-08-23T18:58:41.835Z,23.14
2022-08-23T19:01:33.342Z,23.03
2022-08-23T19:04:03.963Z,22.93
2022-08-23T19:06:31.915Z,22.76
2022-08-23T19:09:00.821Z,22.71
2022-08-23T19:11:29.182Z,22.73
2022-08-23T19:13:56.387Z,22.71
2022-08-23T19:16:24.093Z,22.76
2022-08-23T19:18:51.155Z,22.73
2022-08-23T19:21:22.204Z,22.62
2022-08-23T19:23:52.344Z,22.58
2022-08-23T19:26:25.679Z,22.47
2022-08-23T19:28:52.641Z,22.30
2022-08-23T19:31:19.237Z,22.30
2022-08-23T19:33:45.831Z,22.29
2022-08-23T19:36:29.295Z,22.26
2022-08-23T19:38:58.828Z,21.87
2022-08-23T19:41:25.379Z,21.91
2022-08-23T19:43:52.104Z,21.86
2022-08-23T19:46:18.657Z,21.89
2022-08-23T19:48:47.436Z,21.85
2022-08-23T19:51:18.551Z,21.75
2022-08-23T19:54:03.584Z,21.69
2022-08-23T19:56:37.151Z,21.54
2022-08-23T19:59:08.753Z,21.42
2022-08-23T20:01:36.856Z,21.38
2022-08-23T20:04:05.020Z,21.29
2022-08-23T20:06:32.432Z,21.11
2022-08-23T20:08:59.692Z,20.94
2022-08-23T20:11:27.820Z,20.87
2022-08-23T20:13:56.490Z,20.86
2022-08-23T20:16:23.794Z,20.80
2022-08-23T20:18:51.430Z,20.62
2022-08-23T20:21:18.126Z,20.55
2022-08-23T20:24:00.933Z,20.51
2022-08-23T20:26:35.338Z,20.38
2022-08-23T20:29:04.733Z,20.32
2022-08-23T20:31:36.376Z,20.24
2022-08-23T20:34:08.865Z,20.19
2022-08-23T20:36:35.979Z,20.16
2022-08-23T20:39:04.098Z,20.08
2022-08-23T20:41:36.800Z,20.06
2022-08-23T20:44:05.707Z,20.05
2022-08-23T20:46:33.082Z,19.95
2022-08-23T20:48:59.900Z,19.84
2022-08-23T20:51:29.324Z,19.78
2022-08-23T20:53:56.554Z,19.75
2022-08-23T20:56:25.188Z,19.68
2022-08-23T20:58:52.463Z,19.63
2022-08-23T21:01:19.364Z,19.53
2022-08-23T21:03:46.058Z,19.44
2022-08-23T21:06:23.213Z,19.37
2022-08-23T21:08:55.882Z,19.32
2022-08-23T21:11:28.498Z,19.21
2022-08-23T21:13:57.170Z,19.10
2022-08-23T21:16:25.277Z,19.09
2022-08-23T21:18:53.938Z,18.99
2022-08-23T21:21:26.185Z,18.93
2022-08-23T21:23:55.195Z,18.92
2022-08-23T21:26:23.419Z,18.86
2022-08-23T21:28:52.118Z,18.75
2022-08-23T21:31:25.442Z,18.68
2022-08-23T21:33:54.454Z,18.66
2022-08-23T21:36:23.371Z,18.65
2022-08-23T21:38:50.319Z,18.70
2022-08-23T21:41:45.765Z,18.68
2022-08-23T21:44:18.729Z,18.49
2022-08-23T21:46:46.735Z,18.39
2022-08-23T21:49:20.820Z,18.34
2022-08-23T21:51:49.046Z,18.38
2022-08-23T21:54:18.205Z,18.38
2022-08-23T21:56:45.881Z,18.40
2022-08-23T21:59:17.106Z,18.34
2022-08-23T22:01:44.978Z,18.26
2022-08-23T22:04:14.517Z,18.12
2022-08-23T22:06:44.735Z,18.11
2022-08-23T22:09:15.773Z,18.19
2022-08-23T22:11:46.235Z,18.09
2022-08-23T22:14:21.454Z,17.99
2022-08-23T22:16:49.403Z,17.89
2022-08-23T22:19:22.338Z,17.80
2022-08-23T22:21:51.299Z,17.85
2022-08-23T22:24:24.678Z,17.95
2022-08-23T22:26:52.581Z,17.89
2022-08-23T22:29:19.271Z,17.79
2022-08-23T22:31:48.066Z,17.67
2022-08-23T22:34:15.071Z,17.61
2022-08-23T22:36:41.985Z,17.66
2022-08-23T22:39:08.691Z,17.60
2022-08-23T22:41:35.479Z,17.47
2022-08-23T22:44:03.381Z,17.42
2022-08-23T22:46:33.655Z,17.45
2022-08-23T22:49:01.812Z,17.45
2022-08-23T22:51:32.324Z,17.39
2022-08-23T22:54:08.923Z,17.27
2022-08-23T22:57:01.776Z,17.24
2022-08-23T22:59:32.785Z,17.23
2022-08-23T23:02:00.130Z,17.16
2022-08-23T23:04:31.396Z,17.21
2022-08-23T23:06:58.450Z,17.27
2022-08-23T23:09:26.352Z,17.20
2022-08-23T23:11:53.982Z,17.11
2022-08-23T23:14:22.310Z,17.06
2022-08-23T23:16:50.807Z,16.99
2022-08-23T23:19:36.301Z,16.96
2022-08-23T23:22:04.705Z,16.98
2022-08-23T23:24:38.476Z,17.00
2022-08-23T23:27:05.789Z,17.04
2022-08-23T23:29:32.874Z,17.03
2022-08-23T23:31:59.939Z,17.01
2022-08-23T23:34:28.146Z,16.92
2022-08-23T23:36:57.513Z,16.76
2022-08-23T23:39:25.665Z,16.66
2022-08-23T23:41:52.716Z,16.65
2022-08-23T23:44:22.443Z,16.65
2022-08-23T23:46:56.498Z,16.64
2022-08-23T23:49:23.584Z,16.62
2022-08-23T23:51:58.451Z,16.55
2022-08-23T23:54:25.570Z,16.53
2022-08-23T23:56:52.068Z,16.46
2022-08-23T23:59:19.879Z,16.45
